sensor_id;sensor_type;location;lat;lon;timestamp;P1;durP1;ratioP1;P2;durP2;ratioP2
20069;SDS011;10195;50.868;4.382;2022-09-16T00:01:33;7.23;;;1.90;;
20069;SDS011;10195;50.868;4.382;2022-09-16T00:03:58;4.20;;;1.73;;
20069;SDS011;10195;50.868;4.382;2022-09-16T00:06:25;9.83;;;1.80;;
20069;SDS011;10195;50.868;4.382;2022-09-16T00:08:53;6.67;;;1.80;;
20069;SDS011;10195;50.868;4.382;2022-09-16T00:11:21;9.30;;;2.00;;
20069;SDS011;10195;50.868;4.382;2022-09-16T00:13:49;11.43;;;2.00;;
20069;SDS011;10195;50.868;4.382;2022-09-16T00:16:19;7.93;;;1.80;;
20069;SDS011;10195;50.868;4.382;2022-09-16T00:18:47;6.70;;;1.87;;
20069;SDS011;10195;50.868;4.382;2022-09-16T00:21:13;13.43;;;2.17;;
20069;SDS011;10195;50.868;4.382;2022-09-16T00:23:39;7.10;;;1.97;;
20069;SDS011;10195;50.868;4.382;2022-09-16T00:26:04;6.90;;;1.67;;
20069;SDS011;10195;50.868;4.382;2022-09-16T00:28:30;10.63;;;2.00;;
20069;SDS011;10195;50.868;4.382;2022-09-16T00:31:00;9.57;;;2.27;;
20069;SDS011;10195;50.868;4.382;2022-09-16T00:33:26;8.87;;;1.70;;
20069;SDS011;10195;50.868;4.382;2022-09-16T00:35:52;7.43;;;1.60;;
20069;SDS011;10195;50.868;4.382;2022-09-16T00:38:28;12.57;;;1.80;;
20069;SDS011;10195;50.868;4.382;2022-09-16T00:40:53;10.83;;;1.80;;
20069;SDS011;10195;50.868;4.382;2022-09-16T00:43:19;10.73;;;2.00;;
20069;SDS011;10195;50.868;4.382;2022-09-16T00:45:46;4.20;;;1.40;;
20069;SDS011;10195;50.868;4.382;2022-09-16T00:48:20;5.80;;;1.93;;
20069;SDS011;10195;50.868;4.382;2022-09-16T00:50:54;9.53;;;1.57;;
20069;SDS011;10195;50.868;4.382;2022-09-16T00:53:24;16.23;;;2.03;;
20069;SDS011;10195;50.868;4.382;2022-09-16T00:55:57;14.60;;;1.90;;
20069;SDS011;10195;50.868;4.382;2022-09-16T00:58:33;7.83;;;1.93;;
20069;SDS011;10195;50.868;4.382;2022-09-16T01:01:08;7.50;;;1.93;;
20069;SDS011;10195;50.868;4.382;2022-09-16T01:03:37;10.50;;;2.00;;
20069;SDS011;10195;50.868;4.382;2022-09-16T01:06:15;9.13;;;1.70;;
20069;SDS011;10195;50.868;4.382;2022-09-16T01:08:43;7.57;;;1.90;;
20069;SDS011;10195;50.868;4.382;2022-09-16T01:11:10;9.53;;;1.70;;
20069;SDS011;10195;50.868;4.382;2022-09-16T01:13:36;7.13;;;1.70;;
20069;SDS011;10195;50.868;4.382;2022-09-16T01:16:25;13.27;;;1.77;;
20069;SDS011;10195;50.868;4.382;2022-09-16T01:29:57;7.30;;;1.40;;
20069;SDS011;10195;50.868;4.382;2022-09-16T01:46:46;8.67;;;1.47;;
20069;SDS011;10195;50.868;4.382;2022-09-16T01:52:05;7.90;;;1.80;;
20069;SDS011;10195;50.868;4.382;2022-09-16T01:54:42;9.70;;;1.33;;
20069;SDS011;10195;50.868;4.382;2022-09-16T01:57:18;5.57;;;1.97;;
20069;SDS011;10195;50.868;4.382;2022-09-16T02:00:09;6.43;;;1.63;;
20069;SDS011;10195;50.868;4.382;2022-09-16T02:02:53;7.33;;;1.67;;
20069;SDS011;10195;50.868;4.382;2022-09-16T02:05:33;9.13;;;1.70;;
20069;SDS011;10195;50.868;4.382;2022-09-16T02:08:16;10.37;;;1.73;;
20069;SDS011;10195;50.868;4.382;2022-09-16T02:10:51;7.43;;;1.53;;
20069;SDS011;10195;50.868;4.382;2022-09-16T02:16:07;4.10;;;1.47;;
20069;SDS011;10195;50.868;4.382;2022-09-16T02:18:53;7.20;;;2.43;;
20069;SDS011;10195;50.868;4.382;2022-09-16T02:21:22;5.07;;;1.30;;
20069;SDS011;10195;50.868;4.382;2022-09-16T02:23:54;8.03;;;1.43;;
20069;SDS011;10195;50.868;4.382;2022-09-16T02:26:23;8.87;;;1.43;;
20069;SDS011;10195;50.868;4.382;2022-09-16T02:28:54;11.53;;;2.00;;
20069;SDS011;10195;50.868;4.382;2022-09-16T02:31:21;9.87;;;1.63;;
20069;SDS011;10195;50.868;4.382;2022-09-16T02:33:56;7.67;;;1.43;;
20069;SDS011;10195;50.868;4.382;2022-09-16T02:36:27;11.70;;;2.13;;
20069;SDS011;10195;50.868;4.382;2022-09-16T02:38:56;12.03;;;1.73;;
20069;SDS011;10195;50.868;4.382;2022-09-16T02:41:33;5.77;;;1.80;;
20069;SDS011;10195;50.868;4.382;2022-09-16T02:44:01;7.83;;;1.40;;
20069;SDS011;10195;50.868;4.382;2022-09-16T02:49:03;7.20;;;1.93;;
20069;SDS011;10195;50.868;4.382;2022-09-16T02:56:52;6.07;;;1.40;;
20069;SDS011;10195;50.868;4.382;2022-09-16T02:59:19;5.60;;;1.73;;
20069;SDS011;10195;50.868;4.382;2022-09-16T03:01:46;7.90;;;1.57;;
20069;SDS011;10195;50.868;4.382;2022-09-16T03:04:12;9.83;;;1.20;;
20069;SDS011;10195;50.868;4.382;2022-09-16T03:06:39;8.80;;;1.60;;
20069;SDS011;10195;50.868;4.382;2022-09-16T03:09:09;7.83;;;1.50;;
20069;SDS011;10195;50.868;4.382;2022-09-16T03:20:08;10.67;;;1.90;;
20069;SDS011;10195;50.868;4.382;2022-09-16T03:22:45;7.43;;;1.60;;
20069;SDS011;10195;50.868;4.382;2022-09-16T03:29:10;10.83;;;1.63;;
20069;SDS011;10195;50.868;4.382;2022-09-16T03:31:44;11.10;;;1.40;;
20069;SDS011;10195;50.868;4.382;2022-09-16T03:36:40;12.30;;;2.23;;
20069;SDS011;10195;50.868;4.382;2022-09-16T03:39:12;6.33;;;1.60;;
20069;SDS011;10195;50.868;4.382;2022-09-16T03:41:38;4.63;;;1.40;;
20069;SDS011;10195;50.868;4.382;2022-09-16T03:44:04;5.90;;;1.57;;
20069;SDS011;10195;50.868;4.382;2022-09-16T03:46:30;8.00;;;1.50;;
20069;SDS011;10195;50.868;4.382;2022-09-16T03:48:56;5.30;;;1.67;;
20069;SDS011;10195;50.868;4.382;2022-09-16T03:51:23;5.03;;;1.73;;
20069;SDS011;10195;50.868;4.382;2022-09-16T03:53:50;6.20;;;1.80;;
20069;SDS011;10195;50.868;4.382;2022-09-16T03:56:16;4.10;;;1.50;;
20069;SDS011;10195;50.868;4.382;2022-09-16T03:58:42;9.77;;;1.60;;
20069;SDS011;10195;50.868;4.382;2022-09-16T04:01:07;6.87;;;1.57;;
20069;SDS011;10195;50.868;4.382;2022-09-16T04:03:33;8.43;;;1.80;;
20069;SDS011;10195;50.868;4.382;2022-09-16T04:06:01;8.20;;;1.40;;
20069;SDS011;10195;50.868;4.382;2022-09-16T04:08:27;9.40;;;1.77;;
20069;SDS011;10195;50.868;4.382;2022-09-16T04:11:01;4.90;;;1.33;;
20069;SDS011;10195;50.868;4.382;2022-09-16T04:13:32;5.57;;;1.60;;
20069;SDS011;10195;50.868;4.382;2022-09-16T04:15:59;6.40;;;1.77;;
20069;SDS011;10195;50.868;4.382;2022-09-16T04:18:25;14.23;;;1.67;;
20069;SDS011;10195;50.868;4.382;2022-09-16T04:20:55;10.37;;;1.80;;
20069;SDS011;10195;50.868;4.382;2022-09-16T04:23:23;7.23;;;1.83;;
20069;SDS011;10195;50.868;4.382;2022-09-16T04:25:53;9.50;;;2.10;;
20069;SDS011;10195;50.868;4.382;2022-09-16T04:28:20;10.00;;;2.00;;
20069;SDS011;10195;50.868;4.382;2022-09-16T04:30:46;8.90;;;1.73;;
20069;SDS011;10195;50.868;4.382;2022-09-16T04:33:11;8.00;;;1.83;;
20069;SDS011;10195;50.868;4.382;2022-09-16T04:35:37;10.43;;;2.00;;
20069;SDS011;10195;50.868;4.382;2022-09-16T04:38:02;12.07;;;1.33;;
20069;SDS011;10195;50.868;4.382;2022-09-16T04:40:29;7.90;;;1.30;;
20069;SDS011;10195;50.868;4.382;2022-09-16T04:42:54;5.57;;;1.60;;
20069;SDS011;10195;50.868;4.382;2022-09-16T04:45:20;9.90;;;1.97;;
20069;SDS011;10195;50.868;4.382;2022-09-16T04:47:45;10.63;;;1.63;;
20069;SDS011;10195;50.868;4.382;2022-09-16T04:50:11;8.23;;;1.40;;
20069;SDS011;10195;50.868;4.382;2022-09-16T04:52:37;9.13;;;1.70;;
20069;SDS011;10195;50.868;4.382;2022-09-16T04:55:03;16.23;;;1.97;;
20069;SDS011;10195;50.868;4.382;2022-09-16T04:57:29;5.23;;;1.53;;
20069;SDS011;10195;50.868;4.382;2022-09-16T04:59:56;8.70;;;1.50;;
20069;SDS011;10195;50.868;4.382;2022-09-16T05:02:22;17.83;;;1.87;;
20069;SDS011;10195;50.868;4.382;2022-09-16T05:04:48;5.10;;;1.43;;
20069;SDS011;10195;50.868;4.382;2022-09-16T05:07:13;21.30;;;2.53;;
20069;SDS011;10195;50.868;4.382;2022-09-16T05:09:39;12.10;;;2.07;;
20069;SDS011;10195;50.868;4.382;2022-09-16T05:12:05;7.63;;;1.57;;
20069;SDS011;10195;50.868;4.382;2022-09-16T05:14:31;12.17;;;1.70;;
20069;SDS011;10195;50.868;4.382;2022-09-16T05:16:56;3.57;;;1.53;;
20069;SDS011;10195;50.868;4.382;2022-09-16T05:19:22;9.57;;;1.50;;
20069;SDS011;10195;50.868;4.382;2022-09-16T05:21:48;6.07;;;1.40;;
20069;SDS011;10195;50.868;4.382;2022-09-16T05:24:13;8.50;;;1.53;;
20069;SDS011;10195;50.868;4.382;2022-09-16T05:26:39;4.10;;;1.73;;
20069;SDS011;10195;50.868;4.382;2022-09-16T05:29:07;9.53;;;2.00;;
20069;SDS011;10195;50.868;4.382;2022-09-16T05:31:36;3.27;;;1.43;;
20069;SDS011;10195;50.868;4.382;2022-09-16T05:36:39;7.50;;;2.53;;
20069;SDS011;10195;50.868;4.382;2022-09-16T05:39:07;8.07;;;1.80;;
20069;SDS011;10195;50.868;4.382;2022-09-16T05:41:32;4.40;;;1.30;;
20069;SDS011;10195;50.868;4.382;2022-09-16T05:43:58;7.53;;;1.50;;
20069;SDS011;10195;50.868;4.382;2022-09-16T05:46:25;9.87;;;1.93;;
20069;SDS011;10195;50.868;4.382;2022-09-16T05:48:51;7.77;;;1.60;;
20069;SDS011;10195;50.868;4.382;2022-09-16T05:51:18;9.83;;;1.37;;
20069;SDS011;10195;50.868;4.382;2022-09-16T05:53:46;6.03;;;1.90;;
20069;SDS011;10195;50.868;4.382;2022-09-16T05:56:16;14.00;;;1.77;;
20069;SDS011;10195;50.868;4.382;2022-09-16T05:58:44;5.60;;;1.60;;
20069;SDS011;10195;50.868;4.382;2022-09-16T06:01:14;2.27;;;1.60;;
20069;SDS011;10195;50.868;4.382;2022-09-16T06:03:42;7.03;;;1.60;;
20069;SDS011;10195;50.868;4.382;2022-09-16T06:06:12;10.97;;;1.67;;
20069;SDS011;10195;50.868;4.382;2022-09-16T06:08:42;7.47;;;1.40;;
20069;SDS011;10195;50.868;4.382;2022-09-16T06:11:08;5.93;;;1.70;;
20069;SDS011;10195;50.868;4.382;2022-09-16T06:13:35;7.23;;;1.87;;
20069;SDS011;10195;50.868;4.382;2022-09-16T06:16:01;6.03;;;2.07;;
20069;SDS011;10195;50.868;4.382;2022-09-16T06:18:28;7.37;;;1.90;;
20069;SDS011;10195;50.868;4.382;2022-09-16T06:20:55;7.43;;;1.50;;
20069;SDS011;10195;50.868;4.382;2022-09-16T06:23:21;7.67;;;1.90;;
20069;SDS011;10195;50.868;4.382;2022-09-16T06:25:48;5.03;;;1.33;;
20069;SDS011;10195;50.868;4.382;2022-09-16T06:28:13;7.40;;;1.50;;
20069;SDS011;10195;50.868;4.382;2022-09-16T06:30:39;4.23;;;1.57;;
20069;SDS011;10195;50.868;4.382;2022-09-16T06:33:05;8.53;;;1.83;;
20069;SDS011;10195;50.868;4.382;2022-09-16T06:35:33;10.33;;;1.80;;
20069;SDS011;10195;50.868;4.382;2022-09-16T06:37:59;6.13;;;1.70;;
20069;SDS011;10195;50.868;4.382;2022-09-16T06:40:25;3.47;;;1.30;;
20069;SDS011;10195;50.868;4.382;2022-09-16T06:42:52;2.93;;;1.20;;
20069;SDS011;10195;50.868;4.382;2022-09-16T06:45:18;8.67;;;1.80;;
20069;SDS011;10195;50.868;4.382;2022-09-16T06:47:45;9.70;;;1.83;;
20069;SDS011;10195;50.868;4.382;2022-09-16T06:50:10;13.63;;;2.00;;
20069;SDS011;10195;50.868;4.382;2022-09-16T06:52:36;6.67;;;1.33;;
20069;SDS011;10195;50.868;4.382;2022-09-16T06:55:02;4.97;;;1.47;;
20069;SDS011;10195;50.868;4.382;2022-09-16T06:57:29;8.23;;;1.60;;
20069;SDS011;10195;50.868;4.382;2022-09-16T06:59:55;7.00;;;1.60;;
20069;SDS011;10195;50.868;4.382;2022-09-16T07:02:21;7.33;;;1.63;;
20069;SDS011;10195;50.868;4.382;2022-09-16T07:04:47;8.97;;;2.00;;
20069;SDS011;10195;50.868;4.382;2022-09-16T07:07:13;7.07;;;1.93;;
20069;SDS011;10195;50.868;4.382;2022-09-16T07:09:39;9.37;;;2.27;;
20069;SDS011;10195;50.868;4.382;2022-09-16T07:12:05;7.00;;;2.07;;
20069;SDS011;10195;50.868;4.382;2022-09-16T07:14:31;5.27;;;2.03;;
20069;SDS011;10195;50.868;4.382;2022-09-16T07:16:58;4.37;;;2.23;;
20069;SDS011;10195;50.868;4.382;2022-09-16T07:19:24;4.13;;;1.87;;
20069;SDS011;10195;50.868;4.382;2022-09-16T07:21:51;8.93;;;2.40;;
20069;SDS011;10195;50.868;4.382;2022-09-16T07:24:17;9.67;;;2.30;;
20069;SDS011;10195;50.868;4.382;2022-09-16T07:26:43;5.73;;;1.70;;
20069;SDS011;10195;50.868;4.382;2022-09-16T07:29:10;8.90;;;1.97;;
20069;SDS011;10195;50.868;4.382;2022-09-16T07:31:38;4.70;;;1.80;;
20069;SDS011;10195;50.868;4.382;2022-09-16T07:34:05;13.57;;;1.93;;
20069;SDS011;10195;50.868;4.382;2022-09-16T07:36:34;4.87;;;1.70;;
20069;SDS011;10195;50.868;4.382;2022-09-16T07:39:05;5.93;;;1.60;;
20069;SDS011;10195;50.868;4.382;2022-09-16T07:41:32;10.07;;;1.80;;
20069;SDS011;10195;50.868;4.382;2022-09-16T07:43:59;7.93;;;1.50;;
20069;SDS011;10195;50.868;4.382;2022-09-16T07:46:27;8.20;;;1.60;;
20069;SDS011;10195;50.868;4.382;2022-09-16T07:48:54;4.97;;;1.70;;
20069;SDS011;10195;50.868;4.382;2022-09-16T07:51:21;9.37;;;1.90;;
20069;SDS011;10195;50.868;4.382;2022-09-16T07:53:52;7.97;;;2.10;;
20069;SDS011;10195;50.868;4.382;2022-09-16T07:56:19;7.33;;;1.70;;
20069;SDS011;10195;50.868;4.382;2022-09-16T07:58:47;4.20;;;1.93;;
20069;SDS011;10195;50.868;4.382;2022-09-16T08:01:14;5.03;;;2.00;;
20069;SDS011;10195;50.868;4.382;2022-09-16T08:03:41;3.77;;;1.60;;
20069;SDS011;10195;50.868;4.382;2022-09-16T08:06:11;5.70;;;1.80;;
20069;SDS011;10195;50.868;4.382;2022-09-16T08:08:39;10.40;;;1.33;;
20069;SDS011;10195;50.868;4.382;2022-09-16T08:11:05;2.67;;;1.30;;
20069;SDS011;10195;50.868;4.382;2022-09-16T08:13:32;5.00;;;1.27;;
20069;SDS011;10195;50.868;4.382;2022-09-16T08:15:59;6.83;;;1.20;;
20069;SDS011;10195;50.868;4.382;2022-09-16T08:18:26;6.87;;;1.13;;
20069;SDS011;10195;50.868;4.382;2022-09-16T08:20:52;5.57;;;1.20;;
20069;SDS011;10195;50.868;4.382;2022-09-16T08:23:17;5.00;;;1.20;;
20069;SDS011;10195;50.868;4.382;2022-09-16T08:25:44;4.53;;;1.37;;
20069;SDS011;10195;50.868;4.382;2022-09-16T08:28:14;7.00;;;1.33;;
20069;SDS011;10195;50.868;4.382;2022-09-16T08:30:41;6.13;;;1.07;;
20069;SDS011;10195;50.868;4.382;2022-09-16T08:33:08;4.67;;;1.20;;
20069;SDS011;10195;50.868;4.382;2022-09-16T08:35:34;9.27;;;1.33;;
20069;SDS011;10195;50.868;4.382;2022-09-16T08:38:00;5.87;;;1.70;;
20069;SDS011;10195;50.868;4.382;2022-09-16T08:40:26;5.30;;;1.40;;
20069;SDS011;10195;50.868;4.382;2022-09-16T08:48:23;5.37;;;1.33;;
20069;SDS011;10195;50.868;4.382;2022-09-16T08:51:03;4.60;;;1.40;;
20069;SDS011;10195;50.868;4.382;2022-09-16T08:53:40;7.67;;;1.57;;
20069;SDS011;10195;50.868;4.382;2022-09-16T08:56:19;7.63;;;1.40;;
20069;SDS011;10195;50.868;4.382;2022-09-16T08:58:47;8.20;;;1.57;;
20069;SDS011;10195;50.868;4.382;2022-09-16T09:01:25;2.83;;;1.40;;
20069;SDS011;10195;50.868;4.382;2022-09-16T09:04:13;7.30;;;1.37;;
20069;SDS011;10195;50.868;4.382;2022-09-16T09:06:45;4.93;;;1.43;;
20069;SDS011;10195;50.868;4.382;2022-09-16T09:12:23;2.70;;;1.30;;
20069;SDS011;10195;50.868;4.382;2022-09-16T09:15:00;6.40;;;2.10;;
20069;SDS011;10195;50.868;4.382;2022-09-16T09:18:01;7.57;;;1.50;;
20069;SDS011;10195;50.868;4.382;2022-09-16T09:34:19;7.60;;;1.87;;
20069;SDS011;10195;50.868;4.382;2022-09-16T09:36:59;5.00;;;1.30;;
20069;SDS011;10195;50.868;4.382;2022-09-16T09:39:53;5.57;;;1.30;;
20069;SDS011;10195;50.868;4.382;2022-09-16T09:42:43;8.67;;;2.00;;
20069;SDS011;10195;50.868;4.382;2022-09-16T09:45:18;5.82;;;1.48;;
20069;SDS011;10195;50.868;4.382;2022-09-16T09:48:01;6.50;;;1.97;;
20069;SDS011;10195;50.868;4.382;2022-09-16T09:50:44;5.97;;;1.17;;
20069;SDS011;10195;50.868;4.382;2022-09-16T09:53:13;7.13;;;1.60;;
20069;SDS011;10195;50.868;4.382;2022-09-16T09:56:07;2.53;;;1.23;;
20069;SDS011;10195;50.868;4.382;2022-09-16T10:01:18;5.43;;;1.30;;
20069;SDS011;10195;50.868;4.382;2022-09-16T10:03:44;4.75;;;1.75;;
20069;SDS011;10195;50.868;4.382;2022-09-16T10:06:11;6.60;;;1.40;;
20069;SDS011;10195;50.868;4.382;2022-09-16T10:08:41;4.05;;;0.90;;
20069;SDS011;10195;50.868;4.382;2022-09-16T10:11:16;4.05;;;1.10;;
20069;SDS011;10195;50.868;4.382;2022-09-16T10:13:51;3.30;;;0.80;;
20069;SDS011;10195;50.868;4.382;2022-09-16T10:16:33;2.65;;;0.98;;
20069;SDS011;10195;50.868;4.382;2022-09-16T10:19:05;3.80;;;1.33;;
20069;SDS011;10195;50.868;4.382;2022-09-16T10:21:41;4.13;;;0.88;;
20069;SDS011;10195;50.868;4.382;2022-09-16T10:26:59;6.72;;;1.40;;
20069;SDS011;10195;50.868;4.382;2022-09-16T10:29:26;4.17;;;1.20;;
20069;SDS011;10195;50.868;4.382;2022-09-16T10:31:52;4.83;;;1.50;;
20069;SDS011;10195;50.868;4.382;2022-09-16T10:34:31;2.93;;;1.07;;
20069;SDS011;10195;50.868;4.382;2022-09-16T10:37:12;5.03;;;1.17;;
20069;SDS011;10195;50.868;4.382;2022-09-16T10:39:42;4.85;;;1.70;;
20069;SDS011;10195;50.868;4.382;2022-09-16T10:42:23;4.50;;;1.20;;
20069;SDS011;10195;50.868;4.382;2022-09-16T10:44:52;4.50;;;1.30;;
20069;SDS011;10195;50.868;4.382;2022-09-16T10:47:29;2.73;;;1.10;;
20069;SDS011;10195;50.868;4.382;2022-09-16T10:49:58;3.00;;;1.60;;
20069;SDS011;10195;50.868;4.382;2022-09-16T10:52:27;4.13;;;1.77;;
20069;SDS011;10195;50.868;4.382;2022-09-16T10:54:54;13.13;;;3.57;;
20069;SDS011;10195;50.868;4.382;2022-09-16T10:59:55;14.93;;;5.03;;
20069;SDS011;10195;50.868;4.382;2022-09-16T11:08:15;9.50;;;2.90;;
20069;SDS011;10195;50.868;4.382;2022-09-16T11:11:05;12.30;;;4.17;;
20069;SDS011;10195;50.868;4.382;2022-09-16T11:25:07;3.27;;;1.67;;
20069;SDS011;10195;50.868;4.382;2022-09-16T11:33:36;4.70;;;1.17;;
20069;SDS011;10195;50.868;4.382;2022-09-16T11:36:25;2.70;;;0.90;;
20069;SDS011;10195;50.868;4.382;2022-09-16T11:56:16;4.10;;;1.10;;
20069;SDS011;10195;50.868;4.382;2022-09-16T11:58:50;4.40;;;1.43;;
20069;SDS011;10195;50.868;4.382;2022-09-16T12:06:53;8.67;;;1.90;;
20069;SDS011;10195;50.868;4.382;2022-09-16T12:09:33;3.37;;;1.20;;
20069;SDS011;10195;50.868;4.382;2022-09-16T12:12:21;4.60;;;1.27;;
20069;SDS011;10195;50.868;4.382;2022-09-16T12:14:53;6.80;;;1.20;;
20069;SDS011;10195;50.868;4.382;2022-09-16T12:17:25;6.07;;;1.07;;
20069;SDS011;10195;50.868;4.382;2022-09-16T12:19:58;2.47;;;0.80;;
20069;SDS011;10195;50.868;4.382;2022-09-16T12:22:39;2.50;;;0.90;;
20069;SDS011;10195;50.868;4.382;2022-09-16T12:26:00;2.93;;;1.00;;
20069;SDS011;10195;50.868;4.382;2022-09-16T12:28:31;6.30;;;1.00;;
20069;SDS011;10195;50.868;4.382;2022-09-16T12:34:12;4.07;;;1.47;;
20069;SDS011;10195;50.868;4.382;2022-09-16T12:36:51;4.30;;;1.07;;
20069;SDS011;10195;50.868;4.382;2022-09-16T12:39:47;4.10;;;1.10;;
20069;SDS011;10195;50.868;4.382;2022-09-16T12:42:29;5.83;;;1.57;;
20069;SDS011;10195;50.868;4.382;2022-09-16T12:53:13;3.27;;;1.47;;
20069;SDS011;10195;50.868;4.382;2022-09-16T13:03:59;2.97;;;1.10;;
20069;SDS011;10195;50.868;4.382;2022-09-16T13:06:33;5.30;;;1.33;;
20069;SDS011;10195;50.868;4.382;2022-09-16T13:12:03;3.67;;;1.10;;
20069;SDS011;10195;50.868;4.382;2022-09-16T13:17:11;3.23;;;1.20;;
20069;SDS011;10195;50.868;4.382;2022-09-16T13:28:02;3.23;;;1.40;;
20069;SDS011;10195;50.868;4.382;2022-09-16T13:30:46;6.23;;;1.67;;
20069;SDS011;10195;50.868;4.382;2022-09-16T13:35:48;3.87;;;1.27;;
20069;SDS011;10195;50.868;4.382;2022-09-16T13:38:34;3.63;;;1.10;;
20069;SDS011;10195;50.868;4.382;2022-09-16T13:41:04;4.33;;;1.03;;
20069;SDS011;10195;50.868;4.382;2022-09-16T13:43:48;3.30;;;1.17;;
20069;SDS011;10195;50.868;4.382;2022-09-16T13:46:26;3.40;;;1.00;;
20069;SDS011;10195;50.868;4.382;2022-09-16T13:51:29;5.67;;;0.90;;
20069;SDS011;10195;50.868;4.382;2022-09-16T13:53:57;4.97;;;0.90;;
20069;SDS011;10195;50.868;4.382;2022-09-16T13:59:15;3.37;;;0.90;;
20069;SDS011;10195;50.868;4.382;2022-09-16T14:07:38;3.53;;;0.80;;
20069;SDS011;10195;50.868;4.382;2022-09-16T14:13:04;2.93;;;0.90;;
20069;SDS011;10195;50.868;4.382;2022-09-16T14:15:57;5.10;;;0.80;;
20069;SDS011;10195;50.868;4.382;2022-09-16T14:18:30;1.87;;;0.60;;
20069;SDS011;10195;50.868;4.382;2022-09-16T14:23:32;3.20;;;0.93;;
20069;SDS011;10195;50.868;4.382;2022-09-16T14:26:11;5.33;;;0.80;;
20069;SDS011;10195;50.868;4.382;2022-09-16T14:28:38;1.40;;;0.40;;
20069;SDS011;10195;50.868;4.382;2022-09-16T14:31:08;4.63;;;0.53;;
20069;SDS011;10195;50.868;4.382;2022-09-16T14:33:55;4.17;;;1.33;;
20069;SDS011;10195;50.868;4.382;2022-09-16T14:36:26;2.30;;;0.60;;
20069;SDS011;10195;50.868;4.382;2022-09-16T14:41:33;0.60;;;0.50;;
20069;SDS011;10195;50.868;4.382;2022-09-16T14:46:56;0.30;;;0.30;;
20069;SDS011;10195;50.868;4.382;2022-09-16T14:49:22;1.47;;;0.50;;
20069;SDS011;10195;50.868;4.382;2022-09-16T14:51:49;0.63;;;0.50;;
20069;SDS011;10195;50.868;4.382;2022-09-16T14:54:20;0.73;;;0.50;;
20069;SDS011;10195;50.868;4.382;2022-09-16T14:57:00;0.40;;;0.40;;
20069;SDS011;10195;50.868;4.382;2022-09-16T14:59:27;1.73;;;0.57;;
20069;SDS011;10195;50.868;4.382;2022-09-16T15:01:57;1.63;;;0.50;;
20069;SDS011;10195;50.868;4.382;2022-09-16T15:04:31;0.50;;;0.50;;
20069;SDS011;10195;50.868;4.382;2022-09-16T15:07:01;0.90;;;0.50;;
20069;SDS011;10195;50.868;4.382;2022-09-16T15:12:36;1.97;;;0.57;;
20069;SDS011;10195;50.868;4.382;2022-09-16T15:15:14;1.20;;;0.80;;
20069;SDS011;10195;50.868;4.382;2022-09-16T15:17:50;0.90;;;0.60;;
20069;SDS011;10195;50.868;4.382;2022-09-16T15:20:38;1.03;;;0.70;;
20069;SDS011;10195;50.868;4.382;2022-09-16T15:23:06;1.47;;;0.80;;
20069;SDS011;10195;50.868;4.382;2022-09-16T15:25:49;2.30;;;0.60;;
20069;SDS011;10195;50.868;4.382;2022-09-16T15:28:21;2.87;;;1.23;;
20069;SDS011;10195;50.868;4.382;2022-09-16T15:30:48;1.77;;;0.90;;
20069;SDS011;10195;50.868;4.382;2022-09-16T15:36:01;4.23;;;0.80;;
20069;SDS011;10195;50.868;4.382;2022-09-16T15:38:28;2.47;;;0.87;;
20069;SDS011;10195;50.868;4.382;2022-09-16T15:43:50;2.23;;;0.70;;
20069;SDS011;10195;50.868;4.382;2022-09-16T15:46:17;3.47;;;0.90;;
20069;SDS011;10195;50.868;4.382;2022-09-16T15:48:48;1.50;;;0.80;;
20069;SDS011;10195;50.868;4.382;2022-09-16T15:51:32;4.07;;;1.03;;
20069;SDS011;10195;50.868;4.382;2022-09-16T15:54:05;3.97;;;1.40;;
20069;SDS011;10195;50.868;4.382;2022-09-16T15:59:30;3.17;;;1.17;;
20069;SDS011;10195;50.868;4.382;2022-09-16T16:02:04;3.10;;;1.40;;
20069;SDS011;10195;50.868;4.382;2022-09-16T16:04:44;2.57;;;1.03;;
20069;SDS011;10195;50.868;4.382;2022-09-16T16:07:10;3.37;;;0.87;;
20069;SDS011;10195;50.868;4.382;2022-09-16T16:09:37;1.57;;;0.80;;
20069;SDS011;10195;50.868;4.382;2022-09-16T16:12:06;1.77;;;0.80;;
20069;SDS011;10195;50.868;4.382;2022-09-16T16:14:40;2.93;;;0.80;;
20069;SDS011;10195;50.868;4.382;2022-09-16T16:17:08;4.70;;;0.77;;
20069;SDS011;10195;50.868;4.382;2022-09-16T16:19:35;8.77;;;1.00;;
20069;SDS011;10195;50.868;4.382;2022-09-16T16:22:02;4.57;;;1.40;;
20069;SDS011;10195;50.868;4.382;2022-09-16T16:24:29;2.17;;;0.73;;
20069;SDS011;10195;50.868;4.382;2022-09-16T16:26:55;2.77;;;0.70;;
20069;SDS011;10195;50.868;4.382;2022-09-16T16:29:21;7.10;;;0.97;;
20069;SDS011;10195;50.868;4.382;2022-09-16T16:31:57;3.00;;;1.00;;
20069;SDS011;10195;50.868;4.382;2022-09-16T16:34:31;3.83;;;1.20;;
20069;SDS011;10195;50.868;4.382;2022-09-16T16:37:02;3.50;;;1.13;;
20069;SDS011;10195;50.868;4.382;2022-09-16T16:39:28;3.77;;;1.00;;
20069;SDS011;10195;50.868;4.382;2022-09-16T16:41:54;4.10;;;0.93;;
20069;SDS011;10195;50.868;4.382;2022-09-16T16:44:20;7.37;;;1.53;;
20069;SDS011;10195;50.868;4.382;2022-09-16T16:46:47;7.87;;;1.63;;
20069;SDS011;10195;50.868;4.382;2022-09-16T16:49:14;2.53;;;1.10;;
20069;SDS011;10195;50.868;4.382;2022-09-16T16:51:39;4.40;;;1.47;;
20069;SDS011;10195;50.868;4.382;2022-09-16T16:54:05;7.40;;;0.90;;
20069;SDS011;10195;50.868;4.382;2022-09-16T16:56:30;3.47;;;0.80;;
20069;SDS011;10195;50.868;4.382;2022-09-16T16:58:57;3.83;;;1.70;;
20069;SDS011;10195;50.868;4.382;2022-09-16T17:01:22;3.13;;;0.83;;
20069;SDS011;10195;50.868;4.382;2022-09-16T17:03:48;5.47;;;1.00;;
20069;SDS011;10195;50.868;4.382;2022-09-16T17:06:14;6.40;;;1.30;;
20069;SDS011;10195;50.868;4.382;2022-09-16T17:08:41;5.57;;;1.27;;
20069;SDS011;10195;50.868;4.382;2022-09-16T17:11:10;3.80;;;1.00;;
20069;SDS011;10195;50.868;4.382;2022-09-16T17:13:41;3.07;;;1.00;;
20069;SDS011;10195;50.868;4.382;2022-09-16T17:16:09;5.13;;;1.10;;
20069;SDS011;10195;50.868;4.382;2022-09-16T17:18:36;3.87;;;1.03;;
20069;SDS011;10195;50.868;4.382;2022-09-16T17:21:08;3.33;;;1.13;;
20069;SDS011;10195;50.868;4.382;2022-09-16T17:23:35;5.67;;;1.60;;
20069;SDS011;10195;50.868;4.382;2022-09-16T17:26:01;3.87;;;1.33;;
20069;SDS011;10195;50.868;4.382;2022-09-16T17:28:27;4.80;;;1.03;;
20069;SDS011;10195;50.868;4.382;2022-09-16T17:30:53;2.17;;;1.00;;
20069;SDS011;10195;50.868;4.382;2022-09-16T17:33:19;6.07;;;1.73;;
20069;SDS011;10195;50.868;4.382;2022-09-16T17:35:45;5.50;;;1.50;;
20069;SDS011;10195;50.868;4.382;2022-09-16T17:38:11;2.77;;;1.13;;
20069;SDS011;10195;50.868;4.382;2022-09-16T17:40:37;4.17;;;1.53;;
20069;SDS011;10195;50.868;4.382;2022-09-16T17:43:03;4.13;;;1.20;;
20069;SDS011;10195;50.868;4.382;2022-09-16T17:45:30;4.23;;;1.13;;
20069;SDS011;10195;50.868;4.382;2022-09-16T17:47:57;6.77;;;1.27;;
20069;SDS011;10195;50.868;4.382;2022-09-16T17:50:23;6.83;;;1.37;;
20069;SDS011;10195;50.868;4.382;2022-09-16T17:52:49;5.27;;;1.33;;
20069;SDS011;10195;50.868;4.382;2022-09-16T17:55:15;4.57;;;1.33;;
20069;SDS011;10195;50.868;4.382;2022-09-16T17:57:40;5.40;;;1.50;;
20069;SDS011;10195;50.868;4.382;2022-09-16T18:00:06;5.63;;;1.67;;
20069;SDS011;10195;50.868;4.382;2022-09-16T18:02:33;4.43;;;1.30;;
20069;SDS011;10195;50.868;4.382;2022-09-16T18:04:59;7.00;;;1.20;;
20069;SDS011;10195;50.868;4.382;2022-09-16T18:07:25;7.13;;;1.43;;
20069;SDS011;10195;50.868;4.382;2022-09-16T18:09:51;6.60;;;1.90;;
20069;SDS011;10195;50.868;4.382;2022-09-16T18:12:16;4.57;;;1.40;;
20069;SDS011;10195;50.868;4.382;2022-09-16T18:14:42;5.73;;;1.20;;
20069;SDS011;10195;50.868;4.382;2022-09-16T18:17:07;4.73;;;1.30;;
20069;SDS011;10195;50.868;4.382;2022-09-16T18:19:33;2.93;;;1.07;;
20069;SDS011;10195;50.868;4.382;2022-09-16T18:21:59;6.33;;;1.33;;
20069;SDS011;10195;50.868;4.382;2022-09-16T18:24:24;4.57;;;1.20;;
20069;SDS011;10195;50.868;4.382;2022-09-16T18:26:50;5.60;;;1.27;;